sensor_id;sensor_type;location;lat;lon;timestamp;pressure;altitude;pressure_sealevel;temperature;humidity
63691;BME280;49837;57.280;27.070;2022-08-20T00:00:36;100757.02;;;16.75;86.34
63691;BME280;49837;57.280;27.070;2022-08-20T00:01:34;100759.06;;;16.78;86.14
63691;BME280;49837;57.280;27.070;2022-08-20T00:03:40;100756.11;;;16.74;86.49
63691;BME280;49837;57.280;27.070;2022-08-20T00:04:38;100759.73;;;16.76;86.35
63691;BME280;49837;57.280;27.070;2022-08-20T00:05:43;100757.88;;;16.72;86.56
63691;BME280;49837;57.280;27.070;2022-08-20T00:06:41;100761.31;;;16.67;86.42
63691;BME280;49837;57.280;27.070;2022-08-20T00:07:41;100754.55;;;16.64;86.57
63691;BME280;49837;57.280;27.070;2022-08-20T00:08:42;100755.23;;;16.63;86.49
63691;BME280;49837;57.280;27.070;2022-08-20T00:09:42;100759.58;;;16.6;86.85
63691;BME280;49837;57.280;27.070;2022-08-20T00:10:44;100755.7;;;16.55;87.14
63691;BME280;49837;57.280;27.070;2022-08-20T00:11:45;100756.22;;;16.51;87.21
63691;BME280;49837;57.280;27.070;2022-08-20T00:12:46;100754.99;;;16.52;87.15
63691;BME280;49837;57.280;27.070;2022-08-20T00:13:50;100754.96;;;16.49;87.78
63691;BME280;49837;57.280;27.070;2022-08-20T00:14:47;100755.97;;;16.44;87.52
63691;BME280;49837;57.280;27.070;2022-08-20T00:15:48;100755.01;;;16.42;87.66
63691;BME280;49837;57.280;27.070;2022-08-20T00:16:48;100757.84;;;16.45;87.97
63691;BME280;49837;57.280;27.070;2022-08-20T00:17:50;100756.44;;;16.44;88.06
63691;BME280;49837;57.280;27.070;2022-08-20T00:18:50;100756.05;;;16.46;87.98
63691;BME280;49837;57.280;27.070;2022-08-20T00:19:50;100758.64;;;16.46;87.96
63691;BME280;49837;57.280;27.070;2022-08-20T00:20:52;100757.56;;;16.46;88.08
63691;BME280;49837;57.280;27.070;2022-08-20T00:21:51;100759.87;;;16.47;87.66
63691;BME280;49837;57.280;27.070;2022-08-20T00:22:54;100759.21;;;16.52;87.04
63691;BME280;49837;57.280;27.070;2022-08-20T00:23:55;100761.78;;;16.56;86.91
63691;BME280;49837;57.280;27.070;2022-08-20T00:24:55;100762.77;;;16.55;86.65
63691;BME280;49837;57.280;27.070;2022-08-20T00:25:55;100758.33;;;16.58;86.34
63691;BME280;49837;57.280;27.070;2022-08-20T00:26:55;100760.4;;;16.54;86.64
63691;BME280;49837;57.280;27.070;2022-08-20T00:27:56;100758.33;;;16.44;86.75
63691;BME280;49837;57.280;27.070;2022-08-20T00:28:56;100756.88;;;16.44;86.17
63691;BME280;49837;57.280;27.070;2022-08-20T00:29:57;100755.41;;;16.49;86.25
63691;BME280;49837;57.280;27.070;2022-08-20T00:30:57;100752.28;;;16.45;86.63
63691;BME280;49837;57.280;27.070;2022-08-20T00:31:58;100752.35;;;16.42;86.83
63691;BME280;49837;57.280;27.070;2022-08-20T00:33:02;100756.09;;;16.39;87.29
63691;BME280;49837;57.280;27.070;2022-08-20T00:34:00;100752.56;;;16.35;87.45
63691;BME280;49837;57.280;27.070;2022-08-20T00:35:00;100751.11;;;16.3;87.63
63691;BME280;49837;57.280;27.070;2022-08-20T00:36:01;100752.86;;;16.32;87.02
63691;BME280;49837;57.280;27.070;2022-08-20T00:37:01;100750.62;;;16.33;86.79
63691;BME280;49837;57.280;27.070;2022-08-20T00:38:02;100752.72;;;16.33;86.75
63691;BME280;49837;57.280;27.070;2022-08-20T00:39:02;100753.2;;;16.32;87.1
63691;BME280;49837;57.280;27.070;2022-08-20T00:40:04;100747.98;;;16.26;87.65
63691;BME280;49837;57.280;27.070;2022-08-20T00:41:04;100748.16;;;16.22;87.87
63691;BME280;49837;57.280;27.070;2022-08-20T00:42:04;100749.08;;;16.2;88.08
63691;BME280;49837;57.280;27.070;2022-08-20T00:43:06;100746.78;;;16.15;88.14
63691;BME280;49837;57.280;27.070;2022-08-20T00:45:08;100748.38;;;16.13;89.0
63691;BME280;49837;57.280;27.070;2022-08-20T00:47:09;100750.02;;;16.08;88.38
63691;BME280;49837;57.280;27.070;2022-08-20T00:48:10;100746.08;;;16.08;88.65
63691;BME280;49837;57.280;27.070;2022-08-20T00:49:17;100744.33;;;15.94;89.11
63691;BME280;49837;57.280;27.070;2022-08-20T00:50:15;100742.34;;;15.87;89.13
63691;BME280;49837;57.280;27.070;2022-08-20T00:52:19;100743.63;;;15.96;89.06
63691;BME280;49837;57.280;27.070;2022-08-20T00:53:20;100742.41;;;15.98;88.92
63691;BME280;49837;57.280;27.070;2022-08-20T00:54:24;100744.75;;;15.96;89.78
63691;BME280;49837;57.280;27.070;2022-08-20T00:55:23;100747.99;;;15.95;89.29
63691;BME280;49837;57.280;27.070;2022-08-20T00:56:29;100747.23;;;15.93;88.48
63691;BME280;49837;57.280;27.070;2022-08-20T00:57:32;100746.94;;;16.0;87.29
63691;BME280;49837;57.280;27.070;2022-08-20T00:58:31;100743.14;;;16.02;88.65
63691;BME280;49837;57.280;27.070;2022-08-20T00:59:33;100744.59;;;15.88;89.3
63691;BME280;49837;57.280;27.070;2022-08-20T01:00:35;100746.91;;;15.8;89.47
63691;BME280;49837;57.280;27.070;2022-08-20T01:01:33;100748.45;;;15.81;89.03
63691;BME280;49837;57.280;27.070;2022-08-20T01:02:35;100746.36;;;15.9;89.17
63691;BME280;49837;57.280;27.070;2022-08-20T01:03:36;100743.07;;;15.92;89.28
63691;BME280;49837;57.280;27.070;2022-08-20T01:04:36;100745.89;;;15.86;89.41
63691;BME280;49837;57.280;27.070;2022-08-20T01:05:38;100745.58;;;15.8;89.55
63691;BME280;49837;57.280;27.070;2022-08-20T01:06:38;100745.27;;;15.81;89.18
63691;BME280;49837;57.280;27.070;2022-08-20T01:07:38;100744.08;;;15.85;89.07
63691;BME280;49837;57.280;27.070;2022-08-20T01:08:39;100746.27;;;15.88;89.19
63691;BME280;49837;57.280;27.070;2022-08-20T01:09:38;100735.88;;;15.87;89.24
63691;BME280;49837;57.280;27.070;2022-08-20T01:10:42;100747.05;;;15.77;89.8
63691;BME280;49837;57.280;27.070;2022-08-20T01:11:40;100746.27;;;15.81;89.6
63691;BME280;49837;57.280;27.070;2022-08-20T01:12:43;100745.72;;;15.82;89.2
63691;BME280;49837;57.280;27.070;2022-08-20T01:13:42;100745.95;;;15.97;89.35
63691;BME280;49837;57.280;27.070;2022-08-20T01:14:42;100746.31;;;15.94;89.0
63691;BME280;49837;57.280;27.070;2022-08-20T01:15:44;100747.16;;;15.95;88.84
63691;BME280;49837;57.280;27.070;2022-08-20T01:16:43;100748.66;;;15.99;88.65
63691;BME280;49837;57.280;27.070;2022-08-20T01:18:47;100747.91;;;16.03;88.7
63691;BME280;49837;57.280;27.070;2022-08-20T01:19:51;100745.85;;;16.04;88.78
63691;BME280;49837;57.280;27.070;2022-08-20T01:20:53;100744.39;;;16.08;88.4
63691;BME280;49837;57.280;27.070;2022-08-20T01:21:51;100746.86;;;16.07;88.57
63691;BME280;49837;57.280;27.070;2022-08-20T01:27:07;100745.28;;;16.27;87.56
63691;BME280;49837;57.280;27.070;2022-08-20T01:28:09;100748.25;;;16.3;87.66
63691;BME280;49837;57.280;27.070;2022-08-20T01:29:13;100743.3;;;16.29;87.56
63691;BME280;49837;57.280;27.070;2022-08-20T01:30:12;100743.97;;;16.2;87.95
63691;BME280;49837;57.280;27.070;2022-08-20T01:31:17;100745.23;;;16.18;87.85
63691;BME280;49837;57.280;27.070;2022-08-20T01:32:16;100746.27;;;16.19;87.41
63691;BME280;49837;57.280;27.070;2022-08-20T01:33:18;100746.03;;;16.23;87.56
63691;BME280;49837;57.280;27.070;2022-08-20T01:34:18;100747.69;;;16.22;87.7
63691;BME280;49837;57.280;27.070;2022-08-20T01:35:20;100745.62;;;16.17;87.51
63691;BME280;49837;57.280;27.070;2022-08-20T01:36:22;100745.86;;;16.19;87.94
63691;BME280;49837;57.280;27.070;2022-08-20T01:37:20;100745.53;;;16.19;87.93
63691;BME280;49837;57.280;27.070;2022-08-20T01:38:25;100748.31;;;16.17;87.3
63691;BME280;49837;57.280;27.070;2022-08-20T01:39:31;100747.92;;;16.16;87.96
63691;BME280;49837;57.280;27.070;2022-08-20T01:42:37;100746.16;;;16.23;87.4
63691;BME280;49837;57.280;27.070;2022-08-20T01:43:38;100745.73;;;16.25;87.1
63691;BME280;49837;57.280;27.070;2022-08-20T01:44:39;100742.16;;;16.26;87.05
63691;BME280;49837;57.280;27.070;2022-08-20T01:45:39;100743.47;;;16.23;87.34
63691;BME280;49837;57.280;27.070;2022-08-20T01:46:41;100743.52;;;16.19;87.67
63691;BME280;49837;57.280;27.070;2022-08-20T01:47:40;100741.75;;;16.17;87.84
63691;BME280;49837;57.280;27.070;2022-08-20T01:48:41;100742.16;;;16.17;87.64
63691;BME280;49837;57.280;27.070;2022-08-20T01:49:47;100741.2;;;16.18;87.59
63691;BME280;49837;57.280;27.070;2022-08-20T01:51:48;100738.38;;;16.17;87.54
63691;BME280;49837;57.280;27.070;2022-08-20T01:53:54;100737.36;;;16.11;87.92
63691;BME280;49837;57.280;27.070;2022-08-20T01:54:52;100734.55;;;16.04;88.67
63691;BME280;49837;57.280;27.070;2022-08-20T01:55:52;100732.78;;;16.02;88.6
63691;BME280;49837;57.280;27.070;2022-08-20T01:57:56;100729.75;;;15.99;88.93
63691;BME280;49837;57.280;27.070;2022-08-20T01:58:58;100733.2;;;15.96;89.14
63691;BME280;49837;57.280;27.070;2022-08-20T01:59:56;100731.2;;;16.02;88.65
63691;BME280;49837;57.280;27.070;2022-08-20T02:00:57;100733.1;;;16.07;88.48
63691;BME280;49837;57.280;27.070;2022-08-20T02:01:57;100729.91;;;16.07;88.66
63691;BME280;49837;57.280;27.070;2022-08-20T02:02:57;100726.83;;;16.02;88.97
63691;BME280;49837;57.280;27.070;2022-08-20T02:03:59;100729.58;;;16.02;88.76
63691;BME280;49837;57.280;27.070;2022-08-20T02:04:58;100728.59;;;16.0;88.67
63691;BME280;49837;57.280;27.070;2022-08-20T02:06:00;100729.61;;;15.96;88.89
63691;BME280;49837;57.280;27.070;2022-08-20T02:07:01;100733.08;;;15.95;88.88
63691;BME280;49837;57.280;27.070;2022-08-20T02:08:00;100733.11;;;15.93;89.42
63691;BME280;49837;57.280;27.070;2022-08-20T02:09:02;100738.7;;;15.92;89.27
63691;BME280;49837;57.280;27.070;2022-08-20T02:10:01;100736.72;;;15.95;88.64
63691;BME280;49837;57.280;27.070;2022-08-20T02:11:01;100735.22;;;16.01;88.37
63691;BME280;49837;57.280;27.070;2022-08-20T02:12:03;100732.14;;;16.02;88.89
63691;BME280;49837;57.280;27.070;2022-08-20T02:13:03;100734.66;;;16.0;89.18
63691;BME280;49837;57.280;27.070;2022-08-20T02:14:06;100732.98;;;15.98;89.11
63691;BME280;49837;57.280;27.070;2022-08-20T02:15:06;100730.09;;;15.95;89.1
63691;BME280;49837;57.280;27.070;2022-08-20T02:16:05;100730.14;;;15.9;89.09
63691;BME280;49837;57.280;27.070;2022-08-20T02:17:05;100730.29;;;15.85;89.29
63691;BME280;49837;57.280;27.070;2022-08-20T02:18:08;100727.47;;;15.84;89.42
63691;BME280;49837;57.280;27.070;2022-08-20T02:21:11;100725.7;;;15.82;89.47
63691;BME280;49837;57.280;27.070;2022-08-20T02:23:13;100721.73;;;15.79;89.7
63691;BME280;49837;57.280;27.070;2022-08-20T02:24:14;100722.59;;;15.76;89.92
63691;BME280;49837;57.280;27.070;2022-08-20T02:25:16;100722.64;;;15.67;90.7
63691;BME280;49837;57.280;27.070;2022-08-20T02:26:15;100719.7;;;15.65;91.02
63691;BME280;49837;57.280;27.070;2022-08-20T02:27:15;100720.81;;;15.69;90.73
63691;BME280;49837;57.280;27.070;2022-08-20T02:28:17;100714.98;;;15.69;90.64
63691;BME280;49837;57.280;27.070;2022-08-20T02:29:16;100717.41;;;15.66;90.61
63691;BME280;49837;57.280;27.070;2022-08-20T02:30:23;100717.58;;;15.62;90.71
63691;BME280;49837;57.280;27.070;2022-08-20T02:31:20;100720.44;;;15.61;90.71
63691;BME280;49837;57.280;27.070;2022-08-20T02:32:20;100716.44;;;15.57;91.03
63691;BME280;49837;57.280;27.070;2022-08-20T02:33:25;100718.36;;;15.57;91.25
63691;BME280;49837;57.280;27.070;2022-08-20T02:34:25;100717.44;;;15.55;91.39
63691;BME280;49837;57.280;27.070;2022-08-20T02:35:26;100723.77;;;15.54;90.99
63691;BME280;49837;57.280;27.070;2022-08-20T02:36:26;100718.97;;;15.56;91.08
63691;BME280;49837;57.280;27.070;2022-08-20T02:37:27;100719.45;;;15.56;91.31
63691;BME280;49837;57.280;27.070;2022-08-20T02:38:27;100722.59;;;15.54;90.78
63691;BME280;49837;57.280;27.070;2022-08-20T02:39:27;100716.42;;;15.55;91.01
63691;BME280;49837;57.280;27.070;2022-08-20T02:40:28;100717.16;;;15.52;91.26
63691;BME280;49837;57.280;27.070;2022-08-20T02:41:28;100717.89;;;15.52;91.05
63691;BME280;49837;57.280;27.070;2022-08-20T02:42:29;100716.95;;;15.52;91.0
63691;BME280;49837;57.280;27.070;2022-08-20T02:43:29;100718.93;;;15.49;91.16
63691;BME280;49837;57.280;27.070;2022-08-20T02:44:30;100719.03;;;15.49;91.36
63691;BME280;49837;57.280;27.070;2022-08-20T02:45:31;100718.19;;;15.49;90.79
63691;BME280;49837;57.280;27.070;2022-08-20T02:46:31;100716.23;;;15.58;90.49
63691;BME280;49837;57.280;27.070;2022-08-20T02:47:31;100718.38;;;15.63;89.9
63691;BME280;49837;57.280;27.070;2022-08-20T02:48:32;100718.78;;;15.63;90.4
63691;BME280;49837;57.280;27.070;2022-08-20T02:49:32;100719.07;;;15.6;90.62
63691;BME280;49837;57.280;27.070;2022-08-20T02:50:33;100721.22;;;15.57;90.52
63691;BME280;49837;57.280;27.070;2022-08-20T02:51:33;100721.73;;;15.61;89.89
63691;BME280;49837;57.280;27.070;2022-08-20T02:52:33;100719.89;;;15.63;90.29
63691;BME280;49837;57.280;27.070;2022-08-20T02:53:36;100723.06;;;15.61;90.38
63691;BME280;49837;57.280;27.070;2022-08-20T02:54:34;100722.83;;;15.57;90.39
63691;BME280;49837;57.280;27.070;2022-08-20T02:55:35;100721.02;;;15.52;90.68
63691;BME280;49837;57.280;27.070;2022-08-20T02:56:35;100728.93;;;15.47;90.89
63691;BME280;49837;57.280;27.070;2022-08-20T02:57:36;100730.81;;;15.38;90.87
63691;BME280;49837;57.280;27.070;2022-08-20T02:58:37;100730.0;;;15.29;91.35
63691;BME280;49837;57.280;27.070;2022-08-20T02:59:36;100729.61;;;15.23;91.67
63691;BME280;49837;57.280;27.070;2022-08-20T03:00:38;100730.36;;;15.21;92.1
63691;BME280;49837;57.280;27.070;2022-08-20T03:01:38;100733.73;;;15.24;92.07
63691;BME280;49837;57.280;27.070;2022-08-20T03:02:38;100739.33;;;15.27;92.06
63691;BME280;49837;57.280;27.070;2022-08-20T03:03:39;100745.3;;;15.27;92.13
63691;BME280;49837;57.280;27.070;2022-08-20T03:04:39;100747.03;;;15.26;92.28
63691;BME280;49837;57.280;27.070;2022-08-20T03:05:41;100747.12;;;15.28;92.33
63691;BME280;49837;57.280;27.070;2022-08-20T03:06:40;100744.8;;;15.27;92.2
63691;BME280;49837;57.280;27.070;2022-08-20T03:07:42;100745.84;;;15.28;92.27
63691;BME280;49837;57.280;27.070;2022-08-20T03:08:41;100748.38;;;15.26;92.45
63691;BME280;49837;57.280;27.070;2022-08-20T03:09:41;100749.38;;;15.26;92.06
63691;BME280;49837;57.280;27.070;2022-08-20T03:10:44;100748.48;;;15.25;92.16
63691;BME280;49837;57.280;27.070;2022-08-20T03:11:42;100749.48;;;15.15;91.94
63691;BME280;49837;57.280;27.070;2022-08-20T03:12:42;100747.27;;;15.09;92.33
63691;BME280;49837;57.280;27.070;2022-08-20T03:13:43;100744.58;;;15.09;92.47
63691;BME280;49837;57.280;27.070;2022-08-20T03:14:43;100748.77;;;15.12;92.68
63691;BME280;49837;57.280;27.070;2022-08-20T03:15:47;100749.98;;;15.11;92.83
63691;BME280;49837;57.280;27.070;2022-08-20T03:16:46;100746.48;;;15.12;92.73
63691;BME280;49837;57.280;27.070;2022-08-20T03:17:46;100747.5;;;15.09;92.74
63691;BME280;49837;57.280;27.070;2022-08-20T03:18:46;100751.77;;;15.05;92.9
63691;BME280;49837;57.280;27.070;2022-08-20T03:19:48;100750.0;;;15.01;93.27
63691;BME280;49837;57.280;27.070;2022-08-20T03:20:49;100752.11;;;14.97;93.59
63691;BME280;49837;57.280;27.070;2022-08-20T03:21:49;100748.49;;;14.95;93.79
63691;BME280;49837;57.280;27.070;2022-08-20T03:22:50;100749.39;;;14.91;93.92
63691;BME280;49837;57.280;27.070;2022-08-20T03:23:50;100749.34;;;14.92;93.94
63691;BME280;49837;57.280;27.070;2022-08-20T03:24:50;100748.71;;;14.91;94.16
63691;BME280;49837;57.280;27.070;2022-08-20T03:25:51;100748.52;;;14.9;94.27
63691;BME280;49837;57.280;27.070;2022-08-20T03:26:51;100745.09;;;14.9;94.25
63691;BME280;49837;57.280;27.070;2022-08-20T03:27:52;100745.27;;;14.87;94.31
63691;BME280;49837;57.280;27.070;2022-08-20T03:28:52;100743.65;;;14.9;94.29
63691;BME280;49837;57.280;27.070;2022-08-20T03:29:53;100742.09;;;14.91;94.12
63691;BME280;49837;57.280;27.070;2022-08-20T03:30:53;100746.45;;;14.93;93.93
63691;BME280;49837;57.280;27.070;2022-08-20T03:31:54;100744.91;;;14.94;93.85
63691;BME280;49837;57.280;27.070;2022-08-20T03:32:54;100741.94;;;14.95;93.91
63691;BME280;49837;57.280;27.070;2022-08-20T03:33:54;100739.59;;;14.95;93.94
63691;BME280;49837;57.280;27.070;2022-08-20T03:34:55;100738.38;;;14.96;93.92
63691;BME280;49837;57.280;27.070;2022-08-20T03:35:56;100736.7;;;15.0;93.64
63691;BME280;49837;57.280;27.070;2022-08-20T03:36:56;100734.91;;;15.03;93.52
63691;BME280;49837;57.280;27.070;2022-08-20T03:37:57;100734.02;;;15.0;93.75
63691;BME280;49837;57.280;27.070;2022-08-20T03:39:00;100733.74;;;15.07;93.49
63691;BME280;49837;57.280;27.070;2022-08-20T03:39:58;100732.02;;;15.15;93.04
63691;BME280;49837;57.280;27.070;2022-08-20T03:40:59;100734.59;;;15.15;93.12
63691;BME280;49837;57.280;27.070;2022-08-20T03:41:59;100735.16;;;15.16;93.23
63691;BME280;49837;57.280;27.070;2022-08-20T03:43:00;100738.07;;;15.19;93.26
63691;BME280;49837;57.280;27.070;2022-08-20T03:44:00;100741.58;;;15.21;93.05
63691;BME280;49837;57.280;27.070;2022-08-20T03:45:00;100742.58;;;15.23;92.84
63691;BME280;49837;57.280;27.070;2022-08-20T03:46:01;100747.78;;;15.23;92.73
63691;BME280;49837;57.280;27.070;2022-08-20T03:47:05;100745.31;;;15.27;92.65
63691;BME280;49837;57.280;27.070;2022-08-20T03:48:09;100747.33;;;15.27;92.4
63691;BME280;49837;57.280;27.070;2022-08-20T03:49:07;100751.75;;;15.3;92.09
63691;BME280;49837;57.280;27.070;2022-08-20T03:50:08;100748.34;;;15.31;92.27
63691;BME280;49837;57.280;27.070;2022-08-20T03:51:09;100756.6;;;15.37;92.15
63691;BME280;49837;57.280;27.070;2022-08-20T03:52:09;100751.14;;;15.35;92.16
63691;BME280;49837;57.280;27.070;2022-08-20T03:53:12;100747.76;;;15.33;92.14
63691;BME280;49837;57.280;27.070;2022-08-20T03:54:11;100750.55;;;15.33;92.09
63691;BME280;49837;57.280;27.070;2022-08-20T03:55:11;100748.83;;;15.33;92.22
63691;BME280;49837;57.280;27.070;2022-08-20T03:56:11;100748.69;;;15.35;92.18
63691;BME280;49837;57.280;27.070;2022-08-20T03:57:14;100748.59;;;15.39;91.98
63691;BME280;49837;57.280;27.070;2022-08-20T03:58:14;100745.62;;;15.44;91.89
63691;BME280;49837;57.280;27.070;2022-08-20T03:59:13;100744.16;;;15.43;91.89
63691;BME280;49837;57.280;27.070;2022-08-20T04:00:15;100745.5;;;15.43;91.81
63691;BME280;49837;57.280;27.070;2022-08-20T04:01:14;100742.3;;;15.31;92.46
63691;BME280;49837;57.280;27.070;2022-08-20T04:02:16;100741.54;;;15.33;92.55
63691;BME280;49837;57.280;27.070;2022-08-20T04:03:17;100742.3;;;15.34;92.86
63691;BME280;49837;57.280;27.070;2022-08-20T04:04:17;100741.38;;;15.41;92.71
63691;BME280;49837;57.280;27.070;2022-08-20T04:05:18;100742.44;;;15.53;92.04
63691;BME280;49837;57.280;27.070;2022-08-20T04:06:18;100740.12;;;15.59;91.59
63691;BME280;49837;57.280;27.070;2022-08-20T04:07:24;100738.03;;;15.57;91.64
63691;BME280;49837;57.280;27.070;2022-08-20T04:08:24;100737.67;;;15.64;91.34
63691;BME280;49837;57.280;27.070;2022-08-20T04:09:22;100731.39;;;15.67;91.13
63691;BME280;49837;57.280;27.070;2022-08-20T04:10:23;100724.47;;;15.78;90.76
63691;BME280;49837;57.280;27.070;2022-08-20T04:11:23;100722.94;;;15.82;90.55
63691;BME280;49837;57.280;27.070;2022-08-20T04:12:24;100722.78;;;15.82;90.48
63691;BME280;49837;57.280;27.070;2022-08-20T04:13:25;100724.21;;;15.8;90.5
63691;BME280;49837;57.280;27.070;2022-08-20T04:14:24;100723.85;;;15.82;90.63
63691;BME280;49837;57.280;27.070;2022-08-20T04:15:26;100724.64;;;15.94;90.0
63691;BME280;49837;57.280;27.070;2022-08-20T04:16:25;100726.51;;;16.1;89.02
63691;BME280;49837;57.280;27.070;2022-08-20T04:17:26;100730.31;;;16.28;88.38
63691;BME280;49837;57.280;27.070;2022-08-20T04:18:26;100731.86;;;16.31;88.16
63691;BME280;49837;57.280;27.070;2022-08-20T04:19:27;100729.53;;;16.38;87.88
63691;BME280;49837;57.280;27.070;2022-08-20T04:20:30;100733.36;;;16.44;87.33
63691;BME280;49837;57.280;27.070;2022-08-20T04:21:31;100735.53;;;16.53;86.62
63691;BME280;49837;57.280;27.070;2022-08-20T04:22:31;100737.23;;;16.54;86.72
63691;BME280;49837;57.280;27.070;2022-08-20T04:23:31;100736.42;;;16.59;86.72
63691;BME280;49837;57.280;27.070;2022-08-20T04:24:32;100738.48;;;16.61;86.57
63691;BME280;49837;57.280;27.070;2022-08-20T04:25:34;100735.84;;;16.63;86.31
63691;BME280;49837;57.280;27.070;2022-08-20T04:26:33;100738.03;;;16.63;86.49
63691;BME280;49837;57.280;27.070;2022-08-20T04:27:35;100734.52;;;16.66;85.83
63691;BME280;49837;57.280;27.070;2022-08-20T04:28:34;100735.84;;;16.73;84.98
63691;BME280;49837;57.280;27.070;2022-08-20T04:29:35;100738.98;;;16.8;85.21
63691;BME280;49837;57.280;27.070;2022-08-20T04:30:35;100740.83;;;16.84;84.96
63691;BME280;49837;57.280;27.070;2022-08-20T04:31:35;100735.94;;;16.84;84.01
63691;BME280;49837;57.280;27.070;2022-08-20T04:32:40;100736.88;;;16.89;83.79
63691;BME280;49837;57.280;27.070;2022-08-20T04:33:38;100738.55;;;16.95;83.54
63691;BME280;49837;57.280;27.070;2022-08-20T04:34:39;100740.3;;;16.97;83.12
63691;BME280;49837;57.280;27.070;2022-08-20T04:35:39;100740.38;;;17.01;83.02
63691;BME280;49837;57.280;27.070;2022-08-20T04:36:39;100741.94;;;16.99;82.74
63691;BME280;49837;57.280;27.070;2022-08-20T04:37:41;100740.03;;;17.05;82.57
63691;BME280;49837;57.280;27.070;2022-08-20T04:38:40;100740.84;;;17.09;82.36
63691;BME280;49837;57.280;27.070;2022-08-20T04:39:42;100742.68;;;17.15;82.39
63691;BME280;49837;57.280;27.070;2022-08-20T04:40:42;100740.05;;;17.24;82.01
63691;BME280;49837;57.280;27.070;2022-08-20T04:41:43;100735.31;;;17.35;81.69
63691;BME280;49837;57.280;27.070;2022-08-20T04:42:43;100738.0;;;17.42;81.17
63691;BME280;49837;57.280;27.070;2022-08-20T04:43:44;100735.3;;;17.35;81.08
63691;BME280;49837;57.280;27.070;2022-08-20T04:44:44;100737.33;;;17.37;80.89
63691;BME280;49837;57.280;27.070;2022-08-20T04:45:45;100734.39;;;17.33;80.82
63691;BME280;49837;57.280;27.070;2022-08-20T04:46:45;100736.11;;;17.37;80.63
63691;BME280;49837;57.280;27.070;2022-08-20T04:47:45;100736.55;;;17.39;80.47
63691;BME280;49837;57.280;27.070;2022-08-20T04:48:46;100740.89;;;17.46;80.71
63691;BME280;49837;57.280;27.070;2022-08-20T04:49:46;100742.48;;;17.42;80.29
63691;BME280;49837;57.280;27.070;2022-08-20T04:50:46;100746.59;;;17.42;80.31
63691;BME280;49837;57.280;27.070;2022-08-20T04:51:47;100743.34;;;17.45;79.96
63691;BME280;49837;57.280;27.070;2022-08-20T04:52:47;100747.44;;;17.5;79.96
63691;BME280;49837;57.280;27.070;2022-08-20T04:53:47;100749.84;;;17.57;79.9
63691;BME280;49837;57.280;27.070;2022-08-20T04:54:50;100748.55;;;17.71;79.64
63691;BME280;49837;57.280;27.070;2022-08-20T04:55:52;100751.43;;;17.81;79.1
63691;BME280;49837;57.280;27.070;2022-08-20T04:56:50;100751.03;;;17.8;78.52
63691;BME280;49837;57.280;27.070;2022-08-20T04:57:51;100750.88;;;17.83;78.57
63691;BME280;49837;57.280;27.070;2022-08-20T04:58:53;100748.75;;;17.84;78.24
63691;BME280;49837;57.280;27.070;2022-08-20T04:59:53;100753.61;;;17.87;78.24
63691;BME280;49837;57.280;27.070;2022-08-20T05:00:58;100752.46;;;17.73;78.45
63691;BME280;49837;57.280;27.070;2022-08-20T05:01:57;100749.98;;;17.84;78.66
63691;BME280;49837;57.280;27.070;2022-08-20T05:02:58;100758.12;;;17.95;78.39
63691;BME280;49837;57.280;27.070;2022-08-20T05:03:58;100757.36;;;17.95;78.34
63691;BME280;49837;57.280;27.070;2022-08-20T05:04:58;100751.23;;;17.74;78.12
63691;BME280;49837;57.280;27.070;2022-08-20T05:05:59;100754.19;;;17.79;78.13
63691;BME280;49837;57.280;27.070;2022-08-20T05:07:00;100753.91;;;17.71;78.21
63691;BME280;49837;57.280;27.070;2022-08-20T05:08:00;100757.11;;;17.82;78.65
63691;BME280;49837;57.280;27.070;2022-08-20T05:09:00;100752.78;;;17.9;78.51
63691;BME280;49837;57.280;27.070;2022-08-20T05:10:03;100753.11;;;17.71;78.04
63691;BME280;49837;57.280;27.070;2022-08-20T05:11:01;100749.7;;;17.69;78.57
63691;BME280;49837;57.280;27.070;2022-08-20T05:12:04;100748.64;;;17.76;78.32
63691;BME280;49837;57.280;27.070;2022-08-20T05:13:05;100756.1;;;17.83;78.42
63691;BME280;49837;57.280;27.070;2022-08-20T05:14:05;100754.34;;;17.86;78.55
63691;BME280;49837;57.280;27.070;2022-08-20T05:15:05;100756.36;;;17.9;78.36
63691;BME280;49837;57.280;27.070;2022-08-20T05:16:06;100754.55;;;17.88;78.5
63691;BME280;49837;57.280;27.070;2022-08-20T05:17:06;100760.88;;;17.82;78.24
63691;BME280;49837;57.280;27.070;2022-08-20T05:18:07;100760.06;;;17.85;78.06
63691;BME280;49837;57.280;27.070;2022-08-20T05:19:09;100764.89;;;17.85;78.32
63691;BME280;49837;57.280;27.070;2022-08-20T05:20:09;100755.96;;;17.88;78.06
63691;BME280;49837;57.280;27.070;2022-08-20T05:21:07;100766.39;;;17.78;78.46
63691;BME280;49837;57.280;27.070;2022-08-20T05:22:08;100758.48;;;17.87;78.36
63691;BME280;49837;57.280;27.070;2022-08-20T05:23:10;100762.77;;;17.85;78.29
63691;BME280;49837;57.280;27.070;2022-08-20T05:24:08;100757.34;;;17.8;78.32
63691;BME280;49837;57.280;27.070;2022-08-20T05:25:09;100757.57;;;17.84;78.61
63691;BME280;49837;57.280;27.070;2022-08-20T05:26:09;100759.55;;;17.85;78.54
63691;BME280;49837;57.280;27.070;2022-08-20T05:27:10;100757.34;;;17.72;79.13
63691;BME280;49837;57.280;27.070;2022-08-20T05:28:16;100754.42;;;17.69;78.87
63691;BME280;49837;57.280;27.070;2022-08-20T05:29:14;100755.81;;;17.62;78.76
63691;BME280;49837;57.280;27.070;2022-08-20T05:30:14;100751.2;;;17.68;78.58
63691;BME280;49837;57.280;27.070;2022-08-20T05:31:15;100756.05;;;17.73;78.78
63691;BME280;49837;57.280;27.070;2022-08-20T05:32:15;100754.15;;;17.72;78.88